Terminal Aerodrome Forecast
Issued by NWS San Angelo, TX

Home | Current Version | Previous Version | Text Only | Print | Product List | Glossary On
Versions: 1 2 3 4 5 6 7 8 9 10 11 12 13 14 15 16 17 18 19 20 21 22 23 24 25 26
353
FTUS44 KSJT 290520
TAFSJT
TAF
KSJT 290520Z 2906/3006 15011KT P6SM BKN020 WS020/17045KT
      TEMPO 2906/2908 6SM HZ SCT018 BKN035
     FM291200 19009KT P6SM BKN015
     FM291400 23013KT P6SM SCT250
     FM291600 25014G22KT P6SM SKC=

USA.gov is the U.S. government's official web portal to all federal, state and local government web resources and services.